createdAt,value
2017-08-23T00:01:31.223Z,17.90
2017-08-23T00:03:57.647Z,17.80
2017-08-23T00:06:24.032Z,17.80
2017-08-23T00:08:50.372Z,17.80
2017-08-23T00:11:16.713Z,17.80
2017-08-23T00:13:43.047Z,17.80
2017-08-23T00:16:09.455Z,17.70
2017-08-23T00:18:35.833Z,17.80
2017-08-23T00:21:02.180Z,17.70
2017-08-23T00:23:28.512Z,17.70
2017-08-23T00:25:54.885Z,17.70
2017-08-23T00:28:21.308Z,17.70
2017-08-23T00:30:47.722Z,17.80
2017-08-23T00:33:14.114Z,17.70
2017-08-23T00:35:40.450Z,17.80
2017-08-23T00:38:06.823Z,17.70
2017-08-23T00:40:33.199Z,17.80
2017-08-23T00:42:59.627Z,17.70
2017-08-23T00:45:25.982Z,17.70
2017-08-23T00:47:52.409Z,17.70
2017-08-23T00:50:18.816Z,17.70
2017-08-23T00:52:45.220Z,17.70
2017-08-23T00:55:11.554Z,17.70
2017-08-23T00:57:37.933Z,17.70
2017-08-23T01:00:04.277Z,17.70
2017-08-23T01:02:30.722Z,17.70
2017-08-23T01:04:57.077Z,17.70
2017-08-23T01:07:23.468Z,17.70
2017-08-23T01:09:50.046Z,17.70
2017-08-23T01:12:16.459Z,17.70
2017-08-23T01:14:42.805Z,17.70
2017-08-23T01:17:09.183Z,17.70
2017-08-23T01:19:35.662Z,17.70
2017-08-23T01:22:01.998Z,17.70
2017-08-23T01:24:28.426Z,17.70
2017-08-23T01:26:54.776Z,17.70
2017-08-23T01:29:21.202Z,17.70
2017-08-23T01:31:47.529Z,17.60
2017-08-23T01:34:14.766Z,17.60
2017-08-23T01:36:41.216Z,17.60
2017-08-23T01:39:07.596Z,17.60
2017-08-23T01:41:34.024Z,17.60
2017-08-23T01:44:00.431Z,17.60
2017-08-23T01:46:26.776Z,17.50
2017-08-23T01:48:53.209Z,17.50
2017-08-23T01:51:19.526Z,17.50
2017-08-23T01:53:45.877Z,17.50
2017-08-23T01:56:12.530Z,17.60
2017-08-23T01:58:38.916Z,17.50
2017-08-23T02:01:05.284Z,17.50
2017-08-23T02:03:31.635Z,17.60
2017-08-23T02:05:57.961Z,17.60
2017-08-23T02:08:24.395Z,17.50
2017-08-23T02:10:50.803Z,17.50
2017-08-23T02:13:17.117Z,17.60
2017-08-23T02:15:43.491Z,17.60
2017-08-23T02:18:09.864Z,17.60
2017-08-23T02:20:36.284Z,17.60
2017-08-23T02:23:02.643Z,17.60
2017-08-23T02:25:28.995Z,17.60
2017-08-23T02:27:55.356Z,17.60
2017-08-23T02:30:22.328Z,17.60
2017-08-23T02:32:48.676Z,17.60
2017-08-23T02:35:15.000Z,17.60
2017-08-23T02:37:41.376Z,17.60
2017-08-23T02:40:07.705Z,17.60
2017-08-23T02:42:34.030Z,17.60
2017-08-23T02:45:00.607Z,17.60
2017-08-23T02:47:26.933Z,17.60
2017-08-23T02:49:53.352Z,17.60
2017-08-23T02:52:19.727Z,17.60
2017-08-23T02:54:46.170Z,17.60
2017-08-23T02:57:12.547Z,17.60
2017-08-23T02:59:39.318Z,17.60
2017-08-23T03:02:05.715Z,17.60
2017-08-23T03:04:32.155Z,17.60
2017-08-23T03:06:58.499Z,17.60
2017-08-23T03:09:24.939Z,17.50
2017-08-23T03:11:51.326Z,17.50
2017-08-23T03:14:17.672Z,17.50
2017-08-23T03:16:43.993Z,17.50
2017-08-23T03:19:11.815Z,17.50
2017-08-23T03:21:39.313Z,17.50
2017-08-23T03:24:06.421Z,17.50
2017-08-23T03:26:34.219Z,17.50
2017-08-23T03:29:01.728Z,17.50
2017-08-23T03:31:28.433Z,17.50
2017-08-23T03:33:54.764Z,17.50
2017-08-23T03:36:21.171Z,17.50
2017-08-23T03:38:47.555Z,17.50
2017-08-23T03:41:15.236Z,17.50
2017-08-23T03:43:41.684Z,17.50
2017-08-23T03:46:08.035Z,17.50
2017-08-23T03:48:34.392Z,17.50
2017-08-23T03:51:00.791Z,17.50
2017-08-23T03:53:27.204Z,17.50
2017-08-23T03:55:53.633Z,17.50
2017-08-23T03:58:20.167Z,17.50
2017-08-23T04:00:47.117Z,17.50
2017-08-23T04:03:14.029Z,17.50
2017-08-23T04:05:40.742Z,17.50
2017-08-23T04:08:07.369Z,17.50
2017-08-23T04:10:34.275Z,17.50
2017-08-23T04:13:00.953Z,17.50
2017-08-23T04:15:27.381Z,17.50
2017-08-23T04:17:53.784Z,17.50
2017-08-23T04:20:20.406Z,17.50
2017-08-23T04:22:47.705Z,17.50
2017-08-23T04:25:14.296Z,17.50
2017-08-23T04:27:40.616Z,17.50
2017-08-23T04:30:07.007Z,17.60
2017-08-23T04:35:07.763Z,17.60
2017-08-23T04:37:34.264Z,17.60
2017-08-23T04:40:01.018Z,17.60
2017-08-23T04:42:27.501Z,17.60
2017-08-23T04:44:53.888Z,17.50
2017-08-23T04:47:20.271Z,17.50
2017-08-23T04:49:46.727Z,17.50
2017-08-23T04:52:13.082Z,17.50
2017-08-23T04:54:39.724Z,17.50
2017-08-23T04:57:06.134Z,17.50
2017-08-23T04:59:32.477Z,17.50
2017-08-23T05:01:58.907Z,17.50
2017-08-23T05:04:25.276Z,17.50
2017-08-23T05:06:51.626Z,17.60
2017-08-23T05:09:17.963Z,17.50
2017-08-23T05:11:44.331Z,17.60
2017-08-23T05:14:10.663Z,17.60
2017-08-23T05:16:37.046Z,17.50
2017-08-23T05:19:03.401Z,17.60
2017-08-23T05:21:36.673Z,17.50
2017-08-23T05:24:03.087Z,17.50
2017-08-23T05:26:29.408Z,17.50
2017-08-23T05:28:55.733Z,17.60
2017-08-23T05:31:22.098Z,17.60
2017-08-23T05:33:48.425Z,17.60
2017-08-23T05:36:15.029Z,17.60
2017-08-23T05:38:41.354Z,17.60
2017-08-23T05:41:07.716Z,17.60
2017-08-23T05:43:34.906Z,17.60
2017-08-23T05:46:01.438Z,17.60
2017-08-23T05:48:27.924Z,17.60
2017-08-23T05:50:54.341Z,17.60
2017-08-23T05:53:20.667Z,17.60
2017-08-23T05:55:47.074Z,17.60
2017-08-23T05:58:13.631Z,17.70
2017-08-23T06:00:40.009Z,17.70
2017-08-23T06:03:06.388Z,17.70
2017-08-23T06:05:33.491Z,17.70
2017-08-23T06:08:00.050Z,17.80
2017-08-23T06:10:26.571Z,17.80
2017-08-23T06:12:52.994Z,17.80
2017-08-23T06:15:19.360Z,17.90
2017-08-23T06:17:51.101Z,17.90
2017-08-23T06:20:17.424Z,17.90
2017-08-23T06:22:43.850Z,18.00
2017-08-23T06:25:10.263Z,18.00
2017-08-23T06:27:36.583Z,18.00
2017-08-23T06:30:03.474Z,18.10
2017-08-23T06:32:29.826Z,18.10
2017-08-23T06:34:56.268Z,18.20
2017-08-23T06:37:22.595Z,18.20
2017-08-23T06:39:50.337Z,18.20
2017-08-23T06:42:17.203Z,18.30
2017-08-23T06:44:43.918Z,18.30
2017-08-23T06:47:11.174Z,18.40
2017-08-23T06:49:37.540Z,18.40
2017-08-23T06:52:03.926Z,18.50
2017-08-23T06:54:30.345Z,18.50
2017-08-23T06:56:56.935Z,18.60
2017-08-23T06:59:30.451Z,18.60
2017-08-23T07:01:57.579Z,18.70
2017-08-23T07:04:23.917Z,18.70
2017-08-23T07:06:50.329Z,18.80
2017-08-23T07:09:16.696Z,18.80
2017-08-23T07:11:43.057Z,18.90
2017-08-23T07:14:09.939Z,18.90
2017-08-23T07:16:36.318Z,19.00
2017-08-23T07:19:02.644Z,19.10
2017-08-23T07:21:29.004Z,19.10
2017-08-23T07:23:55.377Z,19.20
2017-08-23T07:26:21.691Z,19.30
2017-08-23T07:28:48.051Z,19.40
2017-08-23T07:31:14.410Z,19.50
2017-08-23T07:33:40.794Z,19.60
2017-08-23T07:36:07.116Z,19.70
2017-08-23T07:38:33.507Z,19.80
2017-08-23T07:40:59.891Z,19.80
2017-08-23T07:43:26.268Z,19.90
2017-08-23T07:45:52.668Z,20.00
2017-08-23T07:48:19.031Z,20.10
2017-08-23T07:50:45.450Z,20.20
2017-08-23T07:53:11.909Z,20.30
2017-08-23T07:55:38.319Z,20.50
2017-08-23T07:58:04.705Z,20.50
2017-08-23T08:00:31.020Z,20.50
2017-08-23T08:02:57.418Z,20.60
2017-08-23T08:05:23.816Z,20.70
2017-08-23T08:07:50.204Z,20.80
2017-08-23T08:10:16.537Z,20.90
2017-08-23T08:12:42.953Z,21.00
2017-08-23T08:15:09.311Z,21.10
2017-08-23T08:17:35.708Z,21.20
2017-08-23T08:20:02.085Z,21.20
2017-08-23T08:22:28.440Z,21.30
2017-08-23T08:24:54.764Z,21.50
2017-08-23T08:27:21.139Z,21.50
2017-08-23T08:29:47.486Z,21.60
2017-08-23T08:32:13.841Z,21.70
2017-08-23T08:34:40.209Z,21.80
2017-08-23T08:37:06.541Z,21.90
2017-08-23T08:39:32.938Z,22.00
2017-08-23T08:41:59.288Z,22.00
2017-08-23T08:44:25.657Z,22.10
2017-08-23T08:46:52.019Z,22.20
2017-08-23T08:49:18.343Z,22.30
2017-08-23T08:51:44.707Z,22.40
2017-08-23T08:54:11.021Z,22.50
2017-08-23T08:56:37.439Z,22.50
2017-08-23T08:59:03.788Z,22.60
2017-08-23T09:01:38.228Z,22.70
2017-08-23T09:04:04.562Z,22.70
2017-08-23T09:06:30.910Z,22.90
2017-08-23T09:08:57.271Z,22.90
2017-08-23T09:11:23.685Z,23.00
2017-08-23T09:13:50.025Z,23.00
2017-08-23T09:16:16.387Z,23.10
2017-08-23T09:18:42.713Z,23.20
2017-08-23T09:21:09.083Z,23.30
2017-08-23T09:23:35.502Z,23.30
2017-08-23T09:26:01.976Z,23.30
2017-08-23T09:28:28.300Z,23.40
2017-08-23T09:30:54.622Z,23.50
2017-08-23T09:33:20.995Z,23.60
2017-08-23T09:35:47.318Z,23.70
2017-08-23T09:38:13.682Z,23.70
2017-08-23T09:40:40.063Z,23.80
2017-08-23T09:43:06.412Z,23.80
2017-08-23T09:45:32.807Z,23.90
2017-08-23T09:47:59.165Z,24.00
2017-08-23T09:50:25.531Z,24.10
2017-08-23T09:52:51.980Z,24.10
2017-08-23T09:55:18.361Z,24.20
2017-08-23T09:57:44.688Z,24.30
2017-08-23T10:00:11.064Z,24.40
2017-08-23T10:02:37.393Z,24.40
2017-08-23T10:05:03.719Z,24.50
2017-08-23T10:07:30.075Z,24.50
2017-08-23T10:09:56.401Z,24.60
2017-08-23T10:12:22.791Z,24.60
2017-08-23T10:14:49.109Z,24.70
2017-08-23T10:17:15.435Z,24.70
2017-08-23T10:19:48.869Z,24.80
2017-08-23T10:22:15.234Z,24.80
2017-08-23T10:24:41.641Z,24.90
2017-08-23T10:27:08.008Z,25.00
2017-08-23T10:29:34.401Z,25.00
2017-08-23T10:32:00.719Z,25.00
2017-08-23T10:34:27.039Z,25.00
2017-08-23T10:36:53.406Z,25.10
2017-08-23T10:39:20.074Z,25.10
2017-08-23T10:41:46.482Z,25.10
2017-08-23T10:44:12.805Z,25.10
2017-08-23T10:46:39.218Z,25.10
2017-08-23T10:49:05.582Z,25.10
2017-08-23T10:51:31.910Z,25.10
2017-08-23T10:53:58.296Z,25.20
2017-08-23T10:56:24.688Z,25.30
2017-08-23T10:58:51.034Z,25.40
2017-08-23T11:01:17.388Z,25.40
2017-08-23T11:03:43.706Z,25.60
2017-08-23T11:06:10.142Z,25.70
2017-08-23T11:08:36.459Z,25.80
2017-08-23T11:11:02.815Z,25.80
2017-08-23T11:13:29.280Z,25.80
2017-08-23T11:15:55.604Z,25.80
2017-08-23T11:18:21.933Z,25.70
2017-08-23T11:20:48.358Z,25.70
2017-08-23T11:23:14.682Z,25.70
2017-08-23T11:25:41.256Z,25.70
2017-08-23T11:28:07.629Z,25.80
2017-08-23T11:30:33.995Z,25.80
2017-08-23T11:33:00.596Z,26.00
2017-08-23T11:35:26.925Z,26.00
2017-08-23T11:37:53.291Z,26.10
2017-08-23T11:40:19.676Z,26.20
2017-08-23T11:42:46.144Z,26.30
2017-08-23T11:45:19.463Z,26.30
2017-08-23T11:47:45.797Z,26.30
2017-08-23T11:50:13.476Z,26.30
2017-08-23T11:52:39.803Z,26.30
2017-08-23T11:55:06.325Z,26.40
2017-08-23T11:57:32.724Z,26.40
2017-08-23T11:59:59.048Z,26.50
2017-08-23T12:02:25.417Z,26.60
2017-08-23T12:04:51.809Z,26.60
2017-08-23T12:07:18.195Z,26.70
2017-08-23T12:09:44.539Z,26.70
2017-08-23T12:12:10.892Z,26.60
2017-08-23T12:14:37.306Z,26.60
2017-08-23T12:17:03.668Z,26.60
2017-08-23T12:19:30.017Z,26.60
2017-08-23T12:21:56.479Z,26.60
2017-08-23T12:24:22.795Z,26.50
2017-08-23T12:26:49.184Z,26.40
2017-08-23T12:29:15.512Z,26.50
2017-08-23T12:31:41.855Z,26.50
2017-08-23T12:34:08.262Z,26.40
2017-08-23T12:36:34.626Z,26.40
2017-08-23T12:39:00.965Z,26.40
2017-08-23T12:41:27.387Z,26.30
2017-08-23T12:43:53.782Z,26.30
2017-08-23T12:46:20.159Z,26.40
2017-08-23T12:48:46.493Z,26.40
2017-08-23T12:51:12.872Z,26.40
2017-08-23T12:53:39.404Z,26.50
2017-08-23T12:56:05.730Z,26.60
2017-08-23T12:58:32.177Z,26.60
2017-08-23T13:00:58.545Z,26.60
2017-08-23T13:03:24.945Z,26.50
2017-08-23T13:05:51.328Z,26.60
2017-08-23T13:08:17.695Z,26.60
2017-08-23T13:10:44.060Z,26.60
2017-08-23T13:13:10.384Z,26.70
2017-08-23T13:15:36.763Z,26.80
2017-08-23T13:18:03.139Z,26.80
2017-08-23T13:20:29.511Z,26.80
2017-08-23T13:22:55.840Z,26.90
2017-08-23T13:25:29.254Z,27.00
2017-08-23T13:27:55.615Z,27.00
2017-08-23T13:30:21.978Z,27.10
2017-08-23T13:32:48.340Z,27.10
2017-08-23T13:35:14.744Z,27.10
2017-08-23T13:37:41.070Z,27.00
2017-08-23T13:40:07.403Z,27.00
2017-08-23T13:42:33.810Z,27.00
2017-08-23T13:45:00.126Z,27.00
2017-08-23T13:47:26.453Z,27.00
2017-08-23T13:49:52.835Z,26.90
2017-08-23T13:52:19.230Z,27.00
2017-08-23T13:54:45.540Z,27.00
2017-08-23T13:57:11.949Z,27.00
2017-08-23T13:59:38.404Z,27.00
2017-08-23T14:02:04.810Z,27.00
2017-08-23T14:04:31.162Z,27.00
2017-08-23T14:06:57.528Z,27.10
2017-08-23T14:09:23.905Z,27.10
2017-08-23T14:11:50.263Z,27.10
2017-08-23T14:14:16.637Z,27.10
2017-08-23T14:16:42.957Z,27.10
2017-08-23T14:19:09.320Z,27.10
2017-08-23T14:21:35.717Z,27.00
2017-08-23T14:24:02.040Z,27.00
2017-08-23T14:26:28.393Z,26.90
2017-08-23T14:28:54.793Z,26.90
2017-08-23T14:31:21.194Z,26.90
2017-08-23T14:33:47.589Z,26.90
2017-08-23T14:36:13.904Z,26.90
2017-08-23T14:38:40.217Z,26.90
2017-08-23T14:41:06.570Z,26.90
2017-08-23T14:43:32.903Z,26.90
2017-08-23T14:45:59.290Z,26.90
2017-08-23T14:48:25.613Z,26.90
2017-08-23T14:50:59.109Z,26.90
2017-08-23T14:53:25.427Z,26.90
2017-08-23T14:55:51.800Z,26.80
2017-08-23T14:58:18.183Z,26.70
2017-08-23T15:00:45.299Z,26.70
2017-08-23T15:03:11.619Z,26.60
2017-08-23T15:05:37.996Z,26.60
2017-08-23T15:08:04.318Z,26.60
2017-08-23T15:10:30.641Z,26.60
2017-08-23T15:12:57.047Z,26.60
2017-08-23T15:15:23.685Z,26.60
2017-08-23T15:17:50.034Z,26.60
2017-08-23T15:20:16.441Z,26.60
2017-08-23T15:22:42.784Z,26.60
2017-08-23T15:25:09.112Z,26.60
2017-08-23T15:27:35.471Z,26.60
2017-08-23T15:30:01.829Z,26.60
2017-08-23T15:32:28.149Z,26.50
2017-08-23T15:34:54.620Z,26.50
2017-08-23T15:37:21.048Z,26.50
2017-08-23T15:39:47.368Z,26.50
2017-08-23T15:42:13.726Z,26.40
2017-08-23T15:44:40.122Z,26.40
2017-08-23T15:47:06.438Z,26.40
2017-08-23T15:49:32.918Z,26.30
2017-08-23T15:51:59.226Z,26.30
2017-08-23T15:56:58.783Z,26.20
2017-08-23T15:59:25.158Z,26.20
2017-08-23T16:01:51.492Z,26.20
2017-08-23T16:04:17.839Z,26.20
2017-08-23T16:06:44.240Z,26.10
2017-08-23T16:09:10.608Z,26.10
2017-08-23T16:11:36.978Z,26.10
2017-08-23T16:14:03.294Z,26.00
2017-08-23T16:16:29.672Z,26.00
2017-08-23T16:18:56.000Z,26.00
2017-08-23T16:21:22.315Z,25.90
2017-08-23T16:23:48.742Z,25.90
2017-08-23T16:26:15.067Z,25.90
2017-08-23T16:28:41.425Z,25.80
2017-08-23T16:31:07.792Z,25.80
2017-08-23T16:33:34.114Z,25.80
2017-08-23T16:36:00.500Z,25.80
2017-08-23T16:38:26.823Z,25.80
2017-08-23T16:40:53.208Z,25.70
2017-08-23T16:43:19.551Z,25.70
2017-08-23T16:45:45.870Z,25.70
2017-08-23T16:48:12.230Z,25.70
2017-08-23T16:50:38.572Z,25.70
2017-08-23T16:53:04.967Z,25.70
2017-08-23T16:55:31.306Z,25.70
2017-08-23T16:57:57.756Z,25.70
2017-08-23T17:00:24.124Z,25.60
2017-08-23T17:02:50.447Z,25.60
2017-08-23T17:05:16.805Z,25.60
2017-08-23T17:07:43.128Z,25.60
2017-08-23T17:10:09.517Z,25.50
2017-08-23T17:12:35.842Z,25.50
2017-08-23T17:15:02.155Z,25.50
2017-08-23T17:17:28.624Z,25.50
2017-08-23T17:19:54.996Z,25.50
2017-08-23T17:22:21.367Z,25.50
2017-08-23T17:24:47.735Z,25.40
2017-08-23T17:27:14.126Z,25.40
2017-08-23T17:29:40.516Z,25.40
2017-08-23T17:32:06.875Z,25.40
2017-08-23T17:34:33.195Z,25.30
2017-08-23T17:36:59.564Z,25.30
2017-08-23T17:39:25.932Z,25.30
2017-08-23T17:41:52.431Z,25.30
2017-08-23T17:44:18.834Z,25.20
2017-08-23T17:46:45.159Z,25.20
2017-08-23T17:49:11.503Z,25.20
2017-08-23T17:51:44.862Z,25.10
2017-08-23T17:54:11.227Z,25.10
2017-08-23T17:56:37.591Z,25.10
2017-08-23T17:59:03.964Z,25.00
2017-08-23T18:01:30.288Z,25.00
2017-08-23T18:03:56.603Z,25.00
2017-08-23T18:06:22.985Z,24.90
2017-08-23T18:08:49.380Z,24.90
2017-08-23T18:11:15.722Z,24.90
2017-08-23T18:13:42.127Z,24.90
2017-08-23T18:16:08.480Z,24.90
2017-08-23T18:18:34.896Z,24.80
2017-08-23T18:21:01.248Z,24.80
2017-08-23T18:23:27.563Z,24.80
2017-08-23T18:25:53.969Z,24.70
2017-08-23T18:28:20.304Z,24.70
2017-08-23T18:30:46.659Z,24.70
2017-08-23T18:33:12.971Z,24.60
2017-08-23T18:35:39.378Z,24.60
2017-08-23T18:38:05.696Z,24.50
2017-08-23T18:40:32.059Z,24.50
2017-08-23T18:42:58.867Z,24.40
2017-08-23T18:45:25.184Z,24.40
2017-08-23T18:47:51.513Z,24.30
2017-08-23T18:50:17.876Z,24.20
2017-08-23T18:52:44.244Z,24.20
2017-08-23T18:55:10.600Z,24.10
2017-08-23T18:57:36.910Z,24.00
2017-08-23T19:00:03.293Z,24.00
2017-08-23T19:02:29.656Z,23.90
2017-08-23T19:04:56.062Z,23.80
2017-08-23T19:07:22.440Z,23.80
2017-08-23T19:09:48.785Z,23.70
2017-08-23T19:12:15.211Z,23.70
2017-08-23T19:14:41.545Z,23.60
2017-08-23T19:17:07.898Z,23.50
2017-08-23T19:19:34.261Z,23.50
2017-08-23T19:22:00.573Z,23.40
2017-08-23T19:24:27.217Z,23.40
2017-08-23T19:26:53.636Z,23.30
2017-08-23T19:29:19.999Z,23.30
2017-08-23T19:31:46.683Z,23.20
2017-08-23T19:34:13.090Z,23.10
2017-08-23T19:36:39.420Z,23.10
2017-08-23T19:39:05.817Z,23.00
2017-08-23T19:41:32.163Z,22.90
2017-08-23T19:43:58.534Z,22.90
2017-08-23T19:46:24.939Z,22.80
2017-08-23T19:48:51.257Z,22.80
2017-08-23T19:51:17.625Z,22.70
2017-08-23T19:53:43.948Z,22.70
2017-08-23T19:56:10.272Z,22.70
2017-08-23T19:58:36.636Z,22.60
2017-08-23T20:01:03.097Z,22.60
2017-08-23T20:03:29.436Z,22.60
2017-08-23T20:05:55.851Z,22.50
2017-08-23T20:08:22.172Z,22.50
2017-08-23T20:10:48.531Z,22.50
2017-08-23T20:13:14.920Z,22.40
2017-08-23T20:15:41.289Z,22.40
2017-08-23T20:18:07.933Z,22.30
2017-08-23T20:20:34.249Z,22.30
2017-08-23T20:23:00.599Z,22.20
2017-08-23T20:25:27.010Z,22.20
2017-08-23T20:27:53.327Z,22.20
2017-08-23T20:30:19.667Z,22.20
2017-08-23T20:32:46.319Z,22.10
2017-08-23T20:35:13.628Z,22.10
2017-08-23T20:37:40.047Z,22.10
2017-08-23T20:40:06.367Z,22.00
2017-08-23T20:42:32.717Z,22.10
2017-08-23T20:44:59.130Z,22.00
2017-08-23T20:47:25.451Z,22.00
2017-08-23T20:49:51.768Z,22.00
2017-08-23T20:52:18.137Z,21.90
2017-08-23T20:54:44.519Z,21.90
2017-08-23T20:57:10.958Z,21.80
2017-08-23T20:59:37.582Z,21.80
2017-08-23T21:02:03.952Z,21.70
2017-08-23T21:04:30.274Z,21.70
2017-08-23T21:06:56.597Z,21.70
2017-08-23T21:09:22.968Z,21.60
2017-08-23T21:11:49.279Z,21.60
2017-08-23T21:14:15.606Z,21.60
2017-08-23T21:16:41.968Z,21.60
2017-08-23T21:19:08.290Z,21.50
2017-08-23T21:21:34.674Z,21.50
2017-08-23T21:24:00.997Z,21.50
2017-08-23T21:26:27.659Z,21.40
2017-08-23T21:28:54.200Z,21.40
2017-08-23T21:31:20.668Z,21.40
2017-08-23T21:33:47.045Z,21.40
2017-08-23T21:36:13.359Z,21.40
2017-08-23T21:38:39.710Z,21.40
2017-08-23T21:41:06.078Z,21.30
2017-08-23T21:43:32.452Z,21.30
2017-08-23T21:45:58.784Z,21.30
2017-08-23T21:48:25.185Z,21.20
2017-08-23T21:50:51.512Z,21.30
2017-08-23T21:53:18.004Z,21.20
2017-08-23T21:55:44.374Z,21.20
2017-08-23T21:58:10.855Z,21.20
2017-08-23T22:00:37.611Z,21.20
2017-08-23T22:03:04.537Z,21.20
2017-08-23T22:05:30.967Z,21.20
2017-08-23T22:07:57.320Z,21.20
2017-08-23T22:10:23.682Z,21.10
2017-08-23T22:12:50.032Z,21.10
2017-08-23T22:15:16.434Z,21.10
2017-08-23T22:17:43.248Z,21.10
2017-08-23T22:20:09.552Z,21.00
2017-08-23T22:22:35.911Z,21.00
2017-08-23T22:25:09.352Z,20.90
2017-08-23T22:27:35.731Z,21.00
2017-08-23T22:30:02.079Z,20.90
2017-08-23T22:32:28.404Z,20.90
2017-08-23T22:34:54.791Z,20.90
2017-08-23T22:37:21.157Z,20.90
2017-08-23T22:39:47.470Z,20.90
2017-08-23T22:42:13.822Z,20.90
2017-08-23T22:44:40.145Z,20.90
2017-08-23T22:47:06.519Z,20.90
2017-08-23T22:49:32.844Z,20.80
2017-08-23T22:51:59.165Z,20.80
2017-08-23T22:54:25.827Z,20.80
2017-08-23T22:56:52.160Z,20.80
2017-08-23T22:59:18.495Z,20.80
2017-08-23T23:01:44.895Z,20.80
2017-08-23T23:04:11.243Z,20.70
2017-08-23T23:06:37.608Z,20.70
2017-08-23T23:09:03.963Z,20.70
2017-08-23T23:11:30.328Z,20.70
2017-08-23T23:13:56.740Z,20.70
2017-08-23T23:16:23.126Z,20.60
2017-08-23T23:18:49.437Z,20.60
2017-08-23T23:21:15.762Z,20.60
2017-08-23T23:23:42.144Z,20.60
2017-08-23T23:26:08.567Z,20.60
2017-08-23T23:28:34.907Z,20.60
2017-08-23T23:31:01.288Z,20.50
2017-08-23T23:33:27.620Z,20.50
2017-08-23T23:35:53.981Z,20.50
2017-08-23T23:38:20.361Z,20.50
2017-08-23T23:40:46.676Z,20.50
2017-08-23T23:43:12.996Z,20.40
2017-08-23T23:45:39.383Z,20.40
2017-08-23T23:48:05.723Z,20.40
2017-08-23T23:50:32.099Z,20.40
2017-08-23T23:52:58.430Z,20.40
2017-08-23T23:55:24.790Z,20.40
2017-08-23T23:57:51.160Z,20.40
